KOGA/OGA METAR and TAF weather

Enter ICAO airport designator
Station Type Date Time Source
KOGA METAR 2021/07/26 12:35 UTC NOAA

KOGA 261235Z AUTO 00000KT 7SM CLR 16/15 A3007 RMK AO2 T01560145


Station Type Date Time Source
KOGA Decoded METAR 2021/07/26 12:35 UTC NOAA

Ogallala, Searle Field Airport, NE, United States (KOGA) 41-07-11N 101-46-08W
Jul 26, 2021 - 08:35 AM EDT / 2021.07.26 1235 UTC
Wind: Calm:0
Visibility: 7 mile(s):0
Sky conditions: clear
Temperature: 60.1 F (15.6 C)
Dew Point: 58.1 F (14.5 C)
Relative Humidity: 93%
Pressure (altimeter): 30.07 in. Hg (1018 hPa)
ob: KOGA 261235Z AUTO 00000KT 7SM CLR 16/15 A3007 RMK AO2 T01560145
cycle: 12

Station Type Date Time Source
KOGA TAF UTC NOAA

Error!

Example: see airport list